Time;durP1;ratioP1;P1;durP2;ratioP2;P2;SDS_P1;SDS_P2;PMS_P1;PMS_P2;Temp;Humidity;BMP_temperature;BMP_pressure;BME280_temperature;BME280_humidity;BME280_pressure;Samples;Min_cycle;Max_cycle;Signal;HPM_P1;HPM_P2
2024/04/05 00:02:13;;;;;;;1.20;1.20;;;;;;;;;;5058019;28;20140;-62
2024/04/05 00:04:39;;;;;;;3.35;1.35;;;;;;;;;;5052818;28;20523;-62
2024/04/05 00:07:05;;;;;;;4.22;1.83;;;;;;;;;;5054104;28;20032;-62
2024/04/05 00:09:31;;;;;;;2.85;1.60;;;;;;;;;;5062735;28;20063;-62
2024/04/05 00:11:57;;;;;;;4.20;1.52;;;;;;;;;;5057844;28;20571;-62
2024/04/05 00:14:23;;;;;;;4.95;2.08;;;;;;;;;;5064245;28;20525;-62
2024/04/05 00:16:50;;;;;;;4.93;2.20;;;;;;;;;;5070043;28;20093;-62
2024/04/05 00:19:16;;;;;;;5.20;2.38;;;;;;;;;;5057077;28;20037;-62
2024/04/05 00:21:43;;;;;;;3.85;2.35;;;;;;;;;;5051782;28;20031;-62
2024/04/05 00:24:09;;;;;;;5.78;2.60;;;;;;;;;;5059762;28;20341;-62
2024/04/05 00:26:36;;;;;;;9.27;2.70;;;;;;;;;;5060186;28;20025;-62
2024/04/05 00:29:02;;;;;;;2.30;1.80;;;;;;;;;;5053055;28;20028;-62
2024/04/05 00:31:28;;;;;;;3.30;1.85;;;;;;;;;;5054569;28;20045;-62
2024/04/05 00:33:55;;;;;;;8.50;2.85;;;;;;;;;;5050552;28;20020;-62
2024/04/05 00:36:21;;;;;;;2.78;2.10;;;;;;;;;;5059744;28;20484;-62
2024/04/05 00:38:47;;;;;;;5.90;1.95;;;;;;;;;;5060221;28;20541;-62
2024/04/05 00:41:13;;;;;;;7.75;2.80;;;;;;;;;;5053949;28;20124;-62
2024/04/05 00:43:42;;;;;;;5.80;2.40;;;;;;;;;;5056607;28;20042;-62
2024/04/05 00:46:08;;;;;;;4.80;2.13;;;;;;;;;;5056594;28;20700;-62
2024/04/05 00:48:34;;;;;;;4.38;1.92;;;;;;;;;;5054138;28;20495;-62
2024/04/05 00:51:00;;;;;;;6.82;2.28;;;;;;;;;;5058994;28;20039;-63
2024/04/05 00:53:31;;;;;;;3.13;2.35;;;;;;;;;;5060220;28;20427;-63
2024/04/05 00:55:58;;;;;;;4.47;2.08;;;;;;;;;;5061301;28;20024;-62
2024/04/05 00:58:24;;;;;;;6.38;2.10;;;;;;;;;;5054151;28;20360;-62
2024/04/05 01:00:50;;;;;;;1.90;1.75;;;;;;;;;;5054449;28;20090;-62
2024/04/05 01:03:17;;;;;;;7.15;1.92;;;;;;;;;;5047938;28;20041;-62
2024/04/05 01:05:43;;;;;;;7.13;2.42;;;;;;;;;;5051649;28;20033;-62
2024/04/05 01:08:10;;;;;;;3.78;2.28;;;;;;;;;;5050538;28;20040;-62
2024/04/05 01:10:36;;;;;;;4.05;2.30;;;;;;;;;;5068825;28;20548;-62
2024/04/05 01:13:07;;;;;;;3.28;2.03;;;;;;;;;;5061369;28;20107;-62
2024/04/05 01:15:34;;;;;;;3.25;1.67;;;;;;;;;;5059834;28;20036;-62
2024/04/05 01:18:03;;;;;;;5.07;2.28;;;;;;;;;;5055980;28;20081;-62
2024/04/05 01:20:30;;;;;;;6.68;2.17;;;;;;;;;;5055609;28;20444;-62
2024/04/05 01:22:59;;;;;;;3.22;1.73;;;;;;;;;;5064878;28;20044;-70
2024/04/05 01:25:26;;;;;;;3.95;1.95;;;;;;;;;;5062499;28;20028;-69
2024/04/05 01:27:52;;;;;;;5.57;2.25;;;;;;;;;;5063653;28;20031;-69
2024/04/05 01:30:21;;;;;;;11.07;2.28;;;;;;;;;;5081636;28;20028;-62
2024/04/05 01:32:54;;;;;;;7.80;3.35;;;;;;;;;;5057603;28;20044;-69
2024/04/05 01:35:20;;;;;;;4.18;2.00;;;;;;;;;;5067624;28;20016;-71
2024/04/05 01:37:47;;;;;;;5.70;2.60;;;;;;;;;;5071441;28;20383;-71
2024/04/05 01:40:13;;;;;;;5.82;2.03;;;;;;;;;;5064933;28;20028;-70
2024/04/05 01:42:39;;;;;;;4.22;2.08;;;;;;;;;;5064981;28;20021;-71
2024/04/05 01:45:05;;;;;;;7.45;2.30;;;;;;;;;;5065605;28;20171;-70
2024/04/05 01:47:32;;;;;;;4.35;2.35;;;;;;;;;;5064817;28;20037;-69
2024/04/05 01:49:58;;;;;;;5.20;2.13;;;;;;;;;;5085737;28;20029;-70
2024/04/05 01:52:24;;;;;;;3.97;2.38;;;;;;;;;;5067691;28;20025;-70
2024/04/05 01:54:52;;;;;;;9.65;2.53;;;;;;;;;;5067836;28;20120;-70
2024/04/05 01:57:18;;;;;;;8.98;2.10;;;;;;;;;;5070114;28;20074;-69
2024/04/05 01:59:48;;;;;;;9.13;3.15;;;;;;;;;;5068879;28;20023;-69
2024/04/05 02:02:14;;;;;;;12.82;3.25;;;;;;;;;;5067120;28;20068;-70
2024/04/05 02:04:41;;;;;;;7.93;2.38;;;;;;;;;;5065777;28;20026;-69
2024/04/05 02:07:07;;;;;;;8.32;2.60;;;;;;;;;;5070070;28;20024;-71
2024/04/05 02:09:33;;;;;;;4.78;2.25;;;;;;;;;;5067386;28;20032;-69
2024/04/05 02:11:59;;;;;;;5.43;2.80;;;;;;;;;;5066948;28;20040;-70
2024/04/05 02:14:26;;;;;;;10.40;2.63;;;;;;;;;;5066605;28;20048;-69
2024/04/05 02:16:56;;;;;;;6.43;2.42;;;;;;;;;;5066455;28;20036;-70
2024/04/05 02:19:22;;;;;;;5.65;2.42;;;;;;;;;;5072207;28;20016;-70
2024/04/05 02:21:49;;;;;;;11.23;2.55;;;;;;;;;;5063971;28;20149;-70
2024/04/05 02:24:15;;;;;;;11.70;2.33;;;;;;;;;;5071291;28;20038;-69
2024/04/05 02:26:42;;;;;;;11.13;2.78;;;;;;;;;;5071393;28;20036;-70
2024/04/05 02:29:09;;;;;;;3.42;1.73;;;;;;;;;;5067534;28;20392;-70
2024/04/05 02:31:35;;;;;;;12.07;3.17;;;;;;;;;;5066760;28;20032;-69
2024/04/05 02:34:03;;;;;;;9.32;2.47;;;;;;;;;;5065571;28;20021;-69
2024/04/05 02:36:29;;;;;;;8.63;1.90;;;;;;;;;;5064645;28;20033;-69
2024/04/05 02:38:55;;;;;;;6.60;2.22;;;;;;;;;;5061643;28;20535;-62
2024/04/05 02:41:22;;;;;;;4.50;2.42;;;;;;;;;;5059405;28;20043;-64
2024/04/05 02:43:48;;;;;;;9.48;2.63;;;;;;;;;;5061699;28;20107;-63
2024/04/05 02:46:14;;;;;;;13.52;2.55;;;;;;;;;;5056170;28;20045;-62
2024/04/05 02:48:40;;;;;;;7.15;2.85;;;;;;;;;;5057294;28;20091;-62
2024/04/05 02:51:06;;;;;;;6.68;1.85;;;;;;;;;;5055640;28;20021;-62
2024/04/05 02:53:33;;;;;;;13.98;3.20;;;;;;;;;;5055521;28;20031;-64
2024/04/05 02:55:59;;;;;;;10.45;2.63;;;;;;;;;;5056571;28;20082;-61
2024/04/05 02:58:25;;;;;;;12.88;2.63;;;;;;;;;;5055523;28;20108;-65
2024/04/05 03:00:55;;;;;;;11.82;2.38;;;;;;;;;;5058599;28;20396;-62
2024/04/05 03:03:21;;;;;;;11.88;2.88;;;;;;;;;;5057230;28;20036;-62
2024/04/05 03:05:48;;;;;;;10.30;3.05;;;;;;;;;;5059282;28;20040;-70
2024/04/05 03:08:14;;;;;;;8.20;2.65;;;;;;;;;;5065304;28;20033;-69
2024/04/05 03:10:41;;;;;;;10.32;2.50;;;;;;;;;;5067909;28;20539;-69
2024/04/05 03:13:07;;;;;;;8.10;2.40;;;;;;;;;;5065253;28;20051;-70
2024/04/05 03:15:34;;;;;;;8.35;2.47;;;;;;;;;;5066811;28;20395;-70
2024/04/05 03:18:02;;;;;;;7.15;2.83;;;;;;;;;;5064080;28;20037;-70
2024/04/05 03:20:28;;;;;;;13.32;3.33;;;;;;;;;;5065415;28;20153;-69
2024/04/05 03:22:55;;;;;;;6.03;2.65;;;;;;;;;;5067936;28;20286;-69
2024/04/05 03:25:21;;;;;;;4.22;2.30;;;;;;;;;;5066954;28;20024;-69
2024/04/05 03:27:47;;;;;;;6.07;2.42;;;;;;;;;;5064127;28;20388;-69
2024/04/05 03:30:14;;;;;;;8.25;2.28;;;;;;;;;;5063507;28;20040;-69
2024/04/05 03:32:40;;;;;;;9.23;2.42;;;;;;;;;;5065042;28;20033;-69
2024/04/05 03:35:06;;;;;;;15.70;4.00;;;;;;;;;;5064864;28;20096;-68
2024/04/05 03:37:36;;;;;;;11.70;3.15;;;;;;;;;;5069685;28;20020;-62
2024/04/05 03:40:03;;;;;;;10.20;3.25;;;;;;;;;;5053231;28;20025;-69
2024/04/05 03:42:29;;;;;;;12.27;3.28;;;;;;;;;;5062071;28;20384;-68
2024/04/05 03:44:56;;;;;;;10.82;2.25;;;;;;;;;;5062647;28;20033;-69
2024/04/05 03:47:22;;;;;;;12.52;3.42;;;;;;;;;;5063691;28;20479;-68
2024/04/05 03:49:48;;;;;;;6.22;2.17;;;;;;;;;;5053248;28;20041;-62
2024/04/05 03:52:15;;;;;;;11.18;2.58;;;;;;;;;;5055978;28;20039;-61
2024/04/05 03:54:41;;;;;;;15.25;2.70;;;;;;;;;;5054050;28;20025;-61
2024/04/05 03:57:07;;;;;;;12.27;2.40;;;;;;;;;;5055584;28;20025;-61
2024/04/05 03:59:33;;;;;;;11.27;2.95;;;;;;;;;;5053633;28;20020;-61
2024/04/05 04:01:59;;;;;;;9.95;2.88;;;;;;;;;;5059480;28;20064;-62
2024/04/05 04:04:27;;;;;;;8.05;3.15;;;;;;;;;;5056294;28;20053;-61
2024/04/05 04:06:54;;;;;;;23.17;4.35;;;;;;;;;;5053049;28;20385;-61
2024/04/05 04:09:20;;;;;;;21.60;4.28;;;;;;;;;;5064496;28;20051;-68
2024/04/05 04:11:47;;;;;;;11.68;3.22;;;;;;;;;;5064835;28;20403;-68
2024/04/05 04:14:16;;;;;;;15.02;3.30;;;;;;;;;;5063874;28;20412;-69
2024/04/05 04:16:42;;;;;;;7.53;3.38;;;;;;;;;;5065634;28;20154;-68
2024/04/05 04:19:08;;;;;;;7.95;2.78;;;;;;;;;;5067951;28;20031;-69
2024/04/05 04:21:37;;;;;;;15.18;2.85;;;;;;;;;;5061614;28;20083;-73
2024/04/05 04:24:05;;;;;;;11.68;3.33;;;;;;;;;;5067702;28;20111;-70
2024/04/05 04:26:32;;;;;;;6.95;2.95;;;;;;;;;;5064693;28;20033;-68
2024/04/05 04:28:58;;;;;;;17.83;3.40;;;;;;;;;;5066377;28;20013;-69
2024/04/05 04:31:25;;;;;;;9.95;2.83;;;;;;;;;;5068058;28;20029;-70
2024/04/05 04:33:53;;;;;;;15.27;2.97;;;;;;;;;;5064110;28;20103;-69
2024/04/05 04:36:22;;;;;;;13.23;4.03;;;;;;;;;;5054955;28;20033;-61
2024/04/05 04:38:48;;;;;;;15.60;3.22;;;;;;;;;;5054620;28;20028;-62
2024/04/05 04:41:15;;;;;;;7.97;3.00;;;;;;;;;;5048952;28;20028;-62
2024/04/05 04:43:41;;;;;;;7.35;3.05;;;;;;;;;;5051978;28;20074;-62
2024/04/05 04:46:10;;;;;;;7.57;3.30;;;;;;;;;;5055109;28;20385;-69
2024/04/05 04:48:37;;;;;;;11.60;3.80;;;;;;;;;;5061486;28;20111;-69
2024/04/05 04:51:03;;;;;;;27.85;4.63;;;;;;;;;;5065153;28;20028;-69
2024/04/05 04:53:29;;;;;;;16.92;3.65;;;;;;;;;;5065703;28;20029;-68
2024/04/05 04:55:55;;;;;;;13.52;3.03;;;;;;;;;;5066695;28;20024;-68
2024/04/05 04:58:23;;;;;;;11.68;3.22;;;;;;;;;;5053833;28;20387;-61
2024/04/05 05:00:51;;;;;;;15.82;3.53;;;;;;;;;;5053740;28;20571;-61
2024/04/05 05:03:17;;;;;;;6.80;2.95;;;;;;;;;;5056001;28;20071;-61
2024/04/05 05:05:44;;;;;;;10.52;2.83;;;;;;;;;;5067531;28;20046;-61
2024/04/05 05:08:11;;;;;;;12.27;2.92;;;;;;;;;;5049357;28;20466;-61
2024/04/05 05:10:41;;;;;;;27.38;3.78;;;;;;;;;;5052812;28;20038;-62
2024/04/05 05:13:09;;;;;;;13.32;3.38;;;;;;;;;;5053939;28;20507;-61
2024/04/05 05:15:36;;;;;;;13.57;3.67;;;;;;;;;;5057154;28;20024;-62
2024/04/05 05:18:02;;;;;;;21.23;3.70;;;;;;;;;;5061950;28;20031;-67
2024/04/05 05:20:29;;;;;;;10.10;3.35;;;;;;;;;;5064177;28;20020;-68
2024/04/05 05:22:55;;;;;;;16.45;4.82;;;;;;;;;;5065063;28;20092;-68
2024/04/05 05:25:21;;;;;;;8.60;2.60;;;;;;;;;;5063594;28;20722;-68
2024/04/05 05:27:47;;;;;;;21.08;3.70;;;;;;;;;;5065468;28;20128;-69
2024/04/05 05:30:14;;;;;;;8.32;3.78;;;;;;;;;;5061870;28;20032;-68
2024/04/05 05:32:41;;;;;;;9.90;2.38;;;;;;;;;;5063404;28;20040;-69
2024/04/05 05:35:07;;;;;;;12.10;2.80;;;;;;;;;;5064637;28;20023;-69
2024/04/05 05:37:33;;;;;;;14.60;3.28;;;;;;;;;;5062940;28;20025;-68
2024/04/05 05:39:59;;;;;;;6.43;3.17;;;;;;;;;;5056645;28;20566;-68
2024/04/05 05:42:27;;;;;;;17.95;3.40;;;;;;;;;;5063049;28;20024;-68
2024/04/05 05:44:53;;;;;;;15.70;3.55;;;;;;;;;;5063576;28;20025;-68
2024/04/05 05:47:19;;;;;;;11.27;3.65;;;;;;;;;;5059502;28;20123;-68
2024/04/05 05:49:46;;;;;;;8.02;2.90;;;;;;;;;;5066706;28;20130;-68
2024/04/05 05:52:16;;;;;;;14.93;4.22;;;;;;;;;;5062085;28;20539;-68
2024/04/05 05:54:44;;;;;;;17.70;3.55;;;;;;;;;;5054495;28;20483;-62
2024/04/05 05:57:11;;;;;;;19.52;3.95;;;;;;;;;;5056922;28;20134;-61
2024/04/05 05:59:37;;;;;;;7.93;2.45;;;;;;;;;;5055346;28;20373;-62
2024/04/05 06:02:04;;;;;;;7.63;2.75;;;;;;;;;;5056290;28;20048;-62
2024/04/05 06:04:30;;;;;;;14.60;3.10;;;;;;;;;;5061264;28;20054;-61
2024/04/05 06:06:57;;;;;;;9.70;4.40;;;;;;;;;;5059806;28;20083;-62
2024/04/05 06:09:24;;;;;;;19.77;3.38;;;;;;;;;;5057714;28;20510;-61
2024/04/05 06:11:51;;;;;;;14.13;3.58;;;;;;;;;;5050562;28;20492;-62
2024/04/05 06:14:17;;;;;;;16.25;3.63;;;;;;;;;;5057765;28;20024;-62
2024/04/05 06:16:44;;;;;;;13.88;3.20;;;;;;;;;;5054119;28;20475;-62
2024/04/05 06:19:10;;;;;;;10.60;4.15;;;;;;;;;;5059618;28;20051;-62
2024/04/05 06:21:37;;;;;;;25.35;4.63;;;;;;;;;;5066107;28;20043;-62
2024/04/05 06:24:03;;;;;;;13.30;2.92;;;;;;;;;;5051517;28;20725;-62
2024/04/05 06:26:29;;;;;;;17.48;3.72;;;;;;;;;;5052576;28;20613;-63
2024/04/05 06:28:56;;;;;;;19.77;4.40;;;;;;;;;;5061369;28;20028;-70
2024/04/05 06:31:22;;;;;;;14.00;3.63;;;;;;;;;;5071789;28;20016;-70
2024/04/05 06:33:48;;;;;;;19.80;3.42;;;;;;;;;;5070886;28;20120;-72
2024/04/05 06:36:15;;;;;;;9.43;3.17;;;;;;;;;;5065257;28;20028;-69
2024/04/05 06:38:41;;;;;;;17.88;3.90;;;;;;;;;;5072859;28;20788;-68
2024/04/05 06:41:07;;;;;;;15.40;3.67;;;;;;;;;;5066737;28;20069;-69
2024/04/05 06:43:34;;;;;;;14.88;3.88;;;;;;;;;;5069441;28;20024;-68
2024/04/05 06:46:03;;;;;;;20.52;3.60;;;;;;;;;;5069530;28;20469;-70
2024/04/05 06:48:31;;;;;;;11.43;3.75;;;;;;;;;;5064952;28;20027;-68
2024/04/05 06:50:58;;;;;;;21.48;4.22;;;;;;;;;;5068142;28;20036;-70
2024/04/05 06:53:25;;;;;;;16.10;4.97;;;;;;;;;;5070320;28;20040;-68
2024/04/05 06:55:51;;;;;;;7.68;3.10;;;;;;;;;;5067720;28;20118;-69
2024/04/05 06:58:18;;;;;;;15.80;3.42;;;;;;;;;;5072625;28;20027;-70
2024/04/05 07:00:47;;;;;;;15.07;5.05;;;;;;;;;;5073196;28;20407;-69
2024/04/05 07:03:13;;;;;;;14.55;3.40;;;;;;;;;;5065102;28;20090;-68
2024/04/05 07:05:40;;;;;;;18.58;4.35;;;;;;;;;;5070915;28;20036;-68
2024/04/05 07:08:07;;;;;;;19.98;4.05;;;;;;;;;;5068575;28;20071;-70
2024/04/05 07:10:34;;;;;;;14.00;6.63;;;;;;;;;;5072765;28;20376;-68
2024/04/05 07:13:00;;;;;;;12.32;3.83;;;;;;;;;;5070109;28;20423;-68
2024/04/05 07:15:26;;;;;;;11.93;3.72;;;;;;;;;;5070567;28;20468;-69
2024/04/05 07:17:54;;;;;;;10.65;3.38;;;;;;;;;;5071717;28;20028;-68
2024/04/05 07:20:20;;;;;;;14.77;3.17;;;;;;;;;;5067531;28;20439;-68
2024/04/05 07:22:47;;;;;;;13.70;3.72;;;;;;;;;;5066536;28;20384;-68
2024/04/05 07:25:14;;;;;;;20.27;3.60;;;;;;;;;;5069077;28;20484;-69
2024/04/05 07:27:45;;;;;;;21.83;4.60;;;;;;;;;;5070657;28;20369;-67
2024/04/05 07:30:12;;;;;;;12.95;3.85;;;;;;;;;;5070390;28;20462;-68
2024/04/05 07:32:38;;;;;;;10.80;3.38;;;;;;;;;;5060654;28;20111;-62
2024/04/05 07:35:04;;;;;;;21.05;4.57;;;;;;;;;;5064230;28;20514;-62
2024/04/05 07:37:30;;;;;;;9.70;3.05;;;;;;;;;;5057119;28;20032;-61
2024/04/05 07:39:57;;;;;;;18.35;5.18;;;;;;;;;;5054969;28;20032;-62
2024/04/05 07:42:23;;;;;;;9.02;3.20;;;;;;;;;;5056183;28;20024;-61
2024/04/05 07:44:56;;;;;;;15.32;4.25;;;;;;;;;;5056251;28;20103;-62
2024/04/05 07:47:22;;;;;;;16.80;3.08;;;;;;;;;;5055775;28;20037;-62
2024/04/05 07:49:53;;;;;;;16.48;4.07;;;;;;;;;;5054121;28;20044;-63
2024/04/05 07:52:22;;;;;;;20.27;3.65;;;;;;;;;;5063846;28;20025;-62
2024/04/05 07:54:49;;;;;;;9.85;3.47;;;;;;;;;;5060326;28;20035;-69
2024/04/05 07:57:15;;;;;;;23.98;5.53;;;;;;;;;;5067685;28;20029;-63
2024/04/05 07:59:42;;;;;;;19.08;4.47;;;;;;;;;;5060288;28;20602;-62
2024/04/05 08:02:09;;;;;;;12.18;4.43;;;;;;;;;;5061722;28;20048;-69
2024/04/05 08:04:35;;;;;;;23.30;3.53;;;;;;;;;;5071805;28;20065;-70
2024/04/05 08:07:02;;;;;;;16.13;4.13;;;;;;;;;;5066349;28;20072;-69
2024/04/05 08:09:28;;;;;;;27.70;5.10;;;;;;;;;;5070166;28;20086;-69
2024/04/05 08:11:54;;;;;;;20.85;4.35;;;;;;;;;;5073314;28;20071;-70
2024/04/05 08:14:20;;;;;;;24.25;4.60;;;;;;;;;;5069627;28;20048;-69
2024/04/05 08:16:47;;;;;;;12.57;5.28;;;;;;;;;;5073699;28;20028;-69
2024/04/05 08:19:13;;;;;;;11.52;3.25;;;;;;;;;;5074815;28;20020;-70
2024/04/05 08:21:39;;;;;;;10.57;3.72;;;;;;;;;;5060214;28;20020;-63
2024/04/05 08:24:05;;;;;;;12.32;3.30;;;;;;;;;;5064738;28;20089;-63
2024/04/05 08:26:32;;;;;;;16.48;3.95;;;;;;;;;;5062857;28;20021;-69
2024/04/05 08:28:58;;;;;;;13.57;3.30;;;;;;;;;;5073282;28;20028;-69
2024/04/05 08:31:25;;;;;;;15.18;4.13;;;;;;;;;;5064325;28;20020;-63
2024/04/05 08:33:51;;;;;;;18.23;4.15;;;;;;;;;;5055801;28;20106;-63
2024/04/05 08:36:18;;;;;;;14.90;3.88;;;;;;;;;;5051015;28;20021;-63
2024/04/05 08:38:46;;;;;;;15.65;3.80;;;;;;;;;;5060599;28;20727;-62
2024/04/05 08:41:17;;;;;;;8.82;2.30;;;;;;;;;;5069101;28;20047;-63
2024/04/05 08:43:45;;;;;;;5.90;2.30;;;;;;;;;;5057815;28;20104;-63
2024/04/05 08:46:11;;;;;;;15.90;4.05;;;;;;;;;;5067605;28;20037;-69
2024/04/05 08:48:38;;;;;;;13.48;4.03;;;;;;;;;;5069203;28;20024;-69
2024/04/05 08:51:05;;;;;;;15.68;2.60;;;;;;;;;;5065995;28;20035;-69
2024/04/05 08:53:32;;;;;;;10.55;3.45;;;;;;;;;;5070590;28;20470;-69
2024/04/05 08:56:02;;;;;;;11.02;2.58;;;;;;;;;;5070098;28;20107;-69
2024/04/05 08:58:29;;;;;;;10.02;3.55;;;;;;;;;;5068982;28;20044;-69
2024/04/05 09:00:55;;;;;;;13.63;3.28;;;;;;;;;;5062441;28;20036;-69
2024/04/05 09:03:22;;;;;;;8.18;4.05;;;;;;;;;;5061049;28;20044;-61
2024/04/05 09:05:50;;;;;;;10.05;3.17;;;;;;;;;;5070537;28;20202;-69
2024/04/05 09:08:16;;;;;;;13.43;3.28;;;;;;;;;;5061080;28;20427;-69
2024/04/05 09:10:51;;;;;;;13.05;3.78;;;;;;;;;;5061533;28;20383;-69
2024/04/05 09:13:23;;;;;;;;;;;;;;;;;;5064386;28;20025;-69
2024/04/05 09:15:53;;;;;;;11.63;2.92;;;;;;;;;;5066092;28;19912;-69
2024/04/05 09:18:28;;;;;;;11.20;3.30;;;;;;;;;;5067475;28;20064;-69
2024/04/05 09:20:58;;;;;;;12.15;3.60;;;;;;;;;;5065908;28;20023;-69
2024/04/05 09:23:24;;;;;;;7.95;3.28;;;;;;;;;;5064702;28;20483;-70
2024/04/05 09:26:00;;;;;;;17.63;4.47;;;;;;;;;;5056761;28;20120;-62
2024/04/05 09:28:29;;;;;;;10.82;3.42;;;;;;;;;;5059160;28;20054;-62
2024/04/05 09:30:59;;;;;;;17.50;3.65;;;;;;;;;;5057505;28;20119;-63
2024/04/05 09:33:25;;;;;;;14.98;4.57;;;;;;;;;;5049885;28;20120;-64
2024/04/05 09:35:56;;;;;;;13.30;3.15;;;;;;;;;;5054560;28;20029;-63
2024/04/05 09:38:24;;;;;;;18.60;3.70;;;;;;;;;;5055401;28;20055;-63
2024/04/05 09:40:52;;;;;;;19.98;4.38;;;;;;;;;;5059258;28;20055;-69
2024/04/05 09:43:20;;;;;;;13.70;4.03;;;;;;;;;;5066374;28;20082;-70
2024/04/05 09:45:49;;;;;;;16.65;4.10;;;;;;;;;;5065557;28;20108;-70
2024/04/05 09:48:17;;;;;;;9.75;2.50;;;;;;;;;;5067099;28;20024;-69
2024/04/05 09:50:44;;;;;;;8.85;3.97;;;;;;;;;;5072042;28;20045;-70
2024/04/05 09:53:12;;;;;;;10.63;3.95;;;;;;;;;;5069403;28;20079;-69
2024/04/05 09:55:39;;;;;;;8.95;3.55;;;;;;;;;;5060014;28;20029;-64
2024/04/05 09:58:08;;;;;;;18.27;4.05;;;;;;;;;;5059165;28;20025;-63
2024/04/05 10:00:36;;;;;;;12.73;2.65;;;;;;;;;;5053275;28;20029;-64
2024/04/05 10:03:04;;;;;;;11.05;3.60;;;;;;;;;;5057900;28;20048;-64
2024/04/05 10:05:35;;;;;;;12.27;3.95;;;;;;;;;;5058821;28;20485;-64
2024/04/05 10:08:12;;;;;;;18.52;4.05;;;;;;;;;;5055908;28;20251;-63
2024/04/05 10:10:38;;;;;;;14.65;2.85;;;;;;;;;;5054095;28;20488;-63
2024/04/05 10:13:11;;;;;;;11.50;2.78;;;;;;;;;;5062757;28;20032;-63
2024/04/05 10:15:37;;;;;;;9.85;3.88;;;;;;;;;;5059748;28;20021;-69
2024/04/05 10:18:06;;;;;;;16.63;3.38;;;;;;;;;;5070859;28;20029;-69
2024/04/05 10:20:34;;;;;;;9.23;3.00;;;;;;;;;;5064838;28;20021;-64
2024/04/05 10:23:00;;;;;;;12.45;3.05;;;;;;;;;;5072289;28;20024;-69
2024/04/05 10:25:27;;;;;;;11.10;3.55;;;;;;;;;;5065689;28;20435;-64
2024/04/05 10:27:54;;;;;;;21.20;3.75;;;;;;;;;;5050121;28;20111;-64
2024/04/05 10:30:23;;;;;;;12.38;3.45;;;;;;;;;;5058180;28;20763;-64
2024/04/05 10:32:58;;;;;;;9.75;3.15;;;;;;;;;;5060047;28;20029;-64
2024/04/05 10:35:29;;;;;;;9.88;2.75;;;;;;;;;;5067378;28;20047;-71
2024/04/05 10:37:59;;;;;;;10.93;3.35;;;;;;;;;;5069648;28;20020;-70
2024/04/05 10:40:25;;;;;;;9.55;4.05;;;;;;;;;;5081369;28;20416;-70
2024/04/05 10:42:51;;;;;;;11.65;2.42;;;;;;;;;;5064017;28;20162;-64
2024/04/05 10:45:18;;;;;;;5.68;2.45;;;;;;;;;;5057068;28;20565;-64
2024/04/05 10:47:52;;;;;;;6.63;2.90;;;;;;;;;;5064534;28;20029;-71
2024/04/05 10:50:19;;;;;;;8.05;2.90;;;;;;;;;;5064898;28;20025;-70
2024/04/05 10:52:52;;;;;;;6.32;3.08;;;;;;;;;;5069716;28;20033;-64
2024/04/05 10:55:19;;;;;;;7.55;3.45;;;;;;;;;;5061260;28;20054;-64
2024/04/05 10:57:46;;;;;;;9.93;3.85;;;;;;;;;;5059990;28;20031;-70
2024/04/05 11:00:12;;;;;;;14.15;3.65;;;;;;;;;;5066339;28;20025;-70
2024/04/05 11:02:40;;;;;;;8.18;2.67;;;;;;;;;;5064815;28;20045;-70
2024/04/05 11:05:15;;;;;;;8.60;3.10;;;;;;;;;;5069111;28;20032;-70
2024/04/05 11:07:41;;;;;;;8.95;3.10;;;;;;;;;;5062756;28;20024;-64
2024/04/05 11:10:18;;;;;;;12.93;3.10;;;;;;;;;;5059796;28;20025;-70
2024/04/05 11:12:44;;;;;;;15.18;4.20;;;;;;;;;;5063709;28;20120;-64
2024/04/05 11:15:11;;;;;;;16.00;3.53;;;;;;;;;;5073970;28;20076;-70
2024/04/05 11:17:38;;;;;;;8.82;3.45;;;;;;;;;;5075474;28;20029;-64
2024/04/05 11:20:05;;;;;;;15.60;3.78;;;;;;;;;;5069857;28;20031;-70
2024/04/05 11:22:32;;;;;;;10.90;3.53;;;;;;;;;;5065287;28;20024;-72
2024/04/05 11:24:58;;;;;;;10.23;3.58;;;;;;;;;;5069164;28;20031;-70
2024/04/05 11:27:24;;;;;;;11.07;3.58;;;;;;;;;;5067849;28;20107;-70
2024/04/05 11:29:50;;;;;;;13.10;3.10;;;;;;;;;;5068780;28;20052;-70
2024/04/05 11:32:31;;;;;;;15.27;3.40;;;;;;;;;;5080191;28;20032;-70
2024/04/05 11:34:58;;;;;;;12.43;3.53;;;;;;;;;;5064920;28;20086;-69
2024/04/05 11:37:24;;;;;;;9.20;3.17;;;;;;;;;;5057956;28;20380;-70
2024/04/05 11:39:50;;;;;;;8.77;2.88;;;;;;;;;;5057837;28;20052;-69
2024/04/05 11:42:17;;;;;;;11.90;2.70;;;;;;;;;;5060613;28;20033;-63
2024/04/05 11:44:43;;;;;;;6.60;2.88;;;;;;;;;;5055507;28;20016;-63
2024/04/05 11:47:09;;;;;;;13.68;3.30;;;;;;;;;;5055296;28;20060;-68
2024/04/05 11:49:35;;;;;;;11.60;3.38;;;;;;;;;;5056429;28;20051;-63
2024/04/05 11:52:02;;;;;;;9.18;3.05;;;;;;;;;;5047891;28;20690;-63
2024/04/05 11:54:28;;;;;;;9.73;2.90;;;;;;;;;;5061505;28;20915;-63
2024/04/05 11:56:54;;;;;;;21.25;4.47;;;;;;;;;;5062894;28;20491;-64
2024/04/05 11:59:21;;;;;;;12.45;3.65;;;;;;;;;;5052288;28;20384;-64
2024/04/05 12:01:47;;;;;;;20.67;3.50;;;;;;;;;;5062408;28;20047;-64
2024/04/05 12:04:13;;;;;;;9.40;3.60;;;;;;;;;;5053206;28;20036;-63
2024/04/05 12:06:40;;;;;;;11.82;3.33;;;;;;;;;;5051728;28;20031;-63
2024/04/05 12:09:08;;;;;;;18.67;3.80;;;;;;;;;;5056585;28;20021;-63
2024/04/05 12:11:34;;;;;;;18.65;3.05;;;;;;;;;;5057786;28;20064;-63
2024/04/05 12:14:00;;;;;;;11.25;3.20;;;;;;;;;;5058220;28;20024;-63
2024/04/05 12:16:26;;;;;;;14.43;2.95;;;;;;;;;;5051017;28;20025;-63
2024/04/05 12:18:52;;;;;;;17.23;4.03;;;;;;;;;;5049741;28;20104;-63
2024/04/05 12:21:19;;;;;;;11.60;3.00;;;;;;;;;;5059098;28;20017;-70
2024/04/05 12:23:45;;;;;;;9.80;3.85;;;;;;;;;;5059827;28;20135;-69
2024/04/05 12:26:11;;;;;;;10.98;4.05;;;;;;;;;;5052828;28;20033;-70
2024/04/05 12:28:38;;;;;;;11.15;3.72;;;;;;;;;;5061677;28;20560;-70
2024/04/05 12:31:04;;;;;;;16.15;3.75;;;;;;;;;;5060833;28;20120;-70
2024/04/05 12:33:31;;;;;;;10.18;2.78;;;;;;;;;;5060653;28;20040;-69
2024/04/05 12:36:00;;;;;;;16.25;3.08;;;;;;;;;;5063647;28;20021;-70
2024/04/05 12:38:28;;;;;;;6.90;2.95;;;;;;;;;;5062455;28;20016;-71
2024/04/05 12:40:55;;;;;;;11.52;3.75;;;;;;;;;;5057604;28;20435;-70
2024/04/05 12:43:21;;;;;;;10.48;4.22;;;;;;;;;;5060043;28;20074;-63
2024/04/05 12:46:01;;;;;;;10.68;3.53;;;;;;;;;;5054187;28;20029;-64
2024/04/05 12:48:27;;;;;;;11.27;3.67;;;;;;;;;;5075275;28;20512;-63
2024/04/05 12:50:54;;;;;;;11.65;3.33;;;;;;;;;;5050125;28;20036;-64
2024/04/05 12:53:21;;;;;;;11.00;4.30;;;;;;;;;;5057726;28;20542;-63
2024/04/05 12:55:57;;;;;;;8.02;2.70;;;;;;;;;;5061014;28;20029;-63
2024/04/05 12:58:30;;;;;;;15.38;3.40;;;;;;;;;;5058894;28;20029;-63
2024/04/05 13:01:05;;;;;;;7.18;3.67;;;;;;;;;;5057198;28;20028;-64
2024/04/05 13:03:35;;;;;;;8.48;4.10;;;;;;;;;;5055995;28;20567;-64
2024/04/05 13:06:09;;;;;;;17.27;3.50;;;;;;;;;;5063222;28;20491;-64
2024/04/05 13:08:35;;;;;;;15.80;3.63;;;;;;;;;;5053125;28;20029;-63
2024/04/05 13:11:04;;;;;;;6.40;3.10;;;;;;;;;;5069915;28;20060;-64
2024/04/05 13:13:30;;;;;;;7.85;3.67;;;;;;;;;;5057164;28;20060;-63
2024/04/05 13:15:59;;;;;;;8.98;2.83;;;;;;;;;;5060138;28;20025;-64
2024/04/05 13:18:26;;;;;;;15.10;3.35;;;;;;;;;;5061468;28;20040;-64
2024/04/05 13:21:04;;;;;;;9.77;3.22;;;;;;;;;;5055320;28;20025;-64
2024/04/05 13:23:32;;;;;;;8.18;3.88;;;;;;;;;;5060535;28;20033;-64
2024/04/05 13:25:58;;;;;;;10.13;3.05;;;;;;;;;;5057297;28;20039;-64
2024/04/05 13:28:24;;;;;;;10.60;3.65;;;;;;;;;;5059630;28;20032;-64
2024/04/05 13:30:59;;;;;;;8.80;3.55;;;;;;;;;;5050850;28;20033;-64
2024/04/05 13:33:38;;;;;;;10.65;3.58;;;;;;;;;;5059424;28;20032;-70
2024/04/05 13:36:12;;;;;;;7.50;2.63;;;;;;;;;;5058511;28;20060;-71
2024/04/05 13:38:38;;;;;;;16.38;3.13;;;;;;;;;;5058148;28;20691;-63
2024/04/05 13:41:05;;;;;;;8.75;2.88;;;;;;;;;;5057096;28;20059;-64
2024/04/05 13:43:35;;;;;;;9.95;4.07;;;;;;;;;;5055691;28;20032;-64
2024/04/05 13:46:09;;;;;;;14.40;3.20;;;;;;;;;;5055217;28;20079;-70
2024/04/05 13:48:36;;;;;;;9.32;3.45;;;;;;;;;;5065962;28;20551;-70
2024/04/05 13:51:04;;;;;;;10.57;3.53;;;;;;;;;;5067084;28;20031;-70
2024/04/05 13:53:32;;;;;;;9.77;2.90;;;;;;;;;;5079899;28;20086;-71
2024/04/05 13:55:59;;;;;;;9.23;3.38;;;;;;;;;;5077842;28;20549;-71
2024/04/05 13:58:30;;;;;;;12.60;3.10;;;;;;;;;;5066415;28;20685;-70
2024/04/05 14:00:56;;;;;;;10.65;2.88;;;;;;;;;;5059661;28;20460;-70
2024/04/05 14:03:24;;;;;;;7.60;3.28;;;;;;;;;;5063492;28;20404;-71
2024/04/05 14:05:50;;;;;;;9.98;2.97;;;;;;;;;;5063031;28;20029;-70
2024/04/05 14:08:20;;;;;;;9.10;2.83;;;;;;;;;;5069635;28;20480;-70
2024/04/05 14:10:46;;;;;;;13.68;3.10;;;;;;;;;;5059014;28;20100;-70
2024/04/05 14:13:14;;;;;;;4.63;2.55;;;;;;;;;;5062767;28;20040;-70
2024/04/05 14:15:41;;;;;;;9.20;2.47;;;;;;;;;;5049218;28;20444;-64
2024/04/05 14:18:08;;;;;;;14.05;3.40;;;;;;;;;;5056806;28;20438;-70
2024/04/05 14:20:41;;;;;;;7.85;3.30;;;;;;;;;;5065215;28;20082;-70
2024/04/05 14:23:07;;;;;;;9.07;3.05;;;;;;;;;;5062289;28;20032;-64
2024/04/05 14:25:42;;;;;;;7.47;3.10;;;;;;;;;;5061246;28;20083;-64
2024/04/05 14:28:08;;;;;;;17.67;3.00;;;;;;;;;;5059464;28;20110;-64
2024/04/05 14:30:36;;;;;;;9.48;3.15;;;;;;;;;;5058335;28;20132;-63
2024/04/05 14:33:03;;;;;;;10.68;2.33;;;;;;;;;;5063254;28;20032;-64
2024/04/05 14:35:29;;;;;;;11.27;3.08;;;;;;;;;;5061557;28;20475;-64
2024/04/05 14:37:55;;;;;;;7.20;3.53;;;;;;;;;;5058563;28;20025;-64